sensor_id;sensor_type;location;lat;lon;timestamp;pressure;altitude;pressure_sealevel;temperature;humidity
13027;BME280;6580;42.680;23.324;2023-08-30T00:01:58;94324.63;;;22.31;100.00
13027;BME280;6580;42.680;23.324;2023-08-30T00:04:44;94340.69;;;22.32;100.00
13027;BME280;6580;42.680;23.324;2023-08-30T00:07:29;94336.56;;;22.30;100.00
13027;BME280;6580;42.680;23.324;2023-08-30T00:10:15;94318.41;;;21.92;100.00
13027;BME280;6580;42.680;23.324;2023-08-30T00:13:01;94343.88;;;21.91;100.00
13027;BME280;6580;42.680;23.324;2023-08-30T00:15:47;94350.94;;;21.92;100.00
13027;BME280;6580;42.680;23.324;2023-08-30T00:18:34;94345.28;;;21.77;100.00
13027;BME280;6580;42.680;23.324;2023-08-30T00:21:21;94328.94;;;21.89;100.00
13027;BME280;6580;42.680;23.324;2023-08-30T00:24:07;94328.66;;;21.90;100.00
13027;BME280;6580;42.680;23.324;2023-08-30T00:26:52;94333.78;;;21.87;100.00
13027;BME280;6580;42.680;23.324;2023-08-30T00:29:38;94328.09;;;21.88;100.00
13027;BME280;6580;42.680;23.324;2023-08-30T00:32:23;94321.88;;;21.88;100.00
13027;BME280;6580;42.680;23.324;2023-08-30T00:35:11;94327.25;;;22.04;100.00
13027;BME280;6580;42.680;23.324;2023-08-30T00:37:56;94321.19;;;21.97;100.00
13027;BME280;6580;42.680;23.324;2023-08-30T00:40:42;94313.38;;;21.84;100.00
13027;BME280;6580;42.680;23.324;2023-08-30T00:43:27;94311.81;;;21.88;100.00
13027;BME280;6580;42.680;23.324;2023-08-30T00:46:14;94324.56;;;21.88;100.00
13027;BME280;6580;42.680;23.324;2023-08-30T00:49:02;94326.94;;;21.84;100.00
13027;BME280;6580;42.680;23.324;2023-08-30T00:51:52;94337.97;;;21.61;100.00
13027;BME280;6580;42.680;23.324;2023-08-30T00:54:40;94347.06;;;21.88;100.00
13027;BME280;6580;42.680;23.324;2023-08-30T00:57:26;94344.03;;;22.01;100.00
13027;BME280;6580;42.680;23.324;2023-08-30T01:00:12;94341.97;;;22.08;100.00
13027;BME280;6580;42.680;23.324;2023-08-30T01:02:57;94325.38;;;22.05;100.00
13027;BME280;6580;42.680;23.324;2023-08-30T01:05:45;94327.91;;;22.11;100.00
13027;BME280;6580;42.680;23.324;2023-08-30T01:08:34;94338.34;;;22.03;100.00
13027;BME280;6580;42.680;23.324;2023-08-30T01:11:26;94344.03;;;22.01;100.00
13027;BME280;6580;42.680;23.324;2023-08-30T01:14:17;94350.34;;;21.90;100.00
13027;BME280;6580;42.680;23.324;2023-08-30T01:17:05;94353.06;;;22.07;100.00
13027;BME280;6580;42.680;23.324;2023-08-30T01:19:57;94376.47;;;22.13;100.00
13027;BME280;6580;42.680;23.324;2023-08-30T01:22:48;94369.25;;;22.18;100.00
13027;BME280;6580;42.680;23.324;2023-08-30T01:25:47;94367.25;;;22.14;100.00
13027;BME280;6580;42.680;23.324;2023-08-30T01:28:39;94362.34;;;21.94;100.00
13027;BME280;6580;42.680;23.324;2023-08-30T01:31:26;94354.06;;;21.68;100.00
13027;BME280;6580;42.680;23.324;2023-08-30T01:34:14;94359.16;;;21.81;100.00
13027;BME280;6580;42.680;23.324;2023-08-30T01:36:59;94338.63;;;21.68;100.00
13027;BME280;6580;42.680;23.324;2023-08-30T01:39:46;94359.56;;;21.89;100.00
13027;BME280;6580;42.680;23.324;2023-08-30T01:42:33;94361.78;;;21.76;100.00
13027;BME280;6580;42.680;23.324;2023-08-30T01:45:22;94362.63;;;21.76;100.00
13027;BME280;6580;42.680;23.324;2023-08-30T01:48:14;94352.56;;;21.93;100.00
13027;BME280;6580;42.680;23.324;2023-08-30T01:51:00;94353.38;;;21.94;100.00
13027;BME280;6580;42.680;23.324;2023-08-30T01:53:46;94352.09;;;21.96;100.00
13027;BME280;6580;42.680;23.324;2023-08-30T01:56:32;94351.03;;;21.97;100.00
13027;BME280;6580;42.680;23.324;2023-08-30T01:59:18;94358.66;;;22.00;100.00
13027;BME280;6580;42.680;23.324;2023-08-30T02:02:05;94358.50;;;22.07;100.00
13027;BME280;6580;42.680;23.324;2023-08-30T02:04:50;94358.25;;;21.92;100.00
13027;BME280;6580;42.680;23.324;2023-08-30T02:07:42;94356.38;;;21.92;100.00
13027;BME280;6580;42.680;23.324;2023-08-30T02:10:34;94350.28;;;21.85;100.00
13027;BME280;6580;42.680;23.324;2023-08-30T02:13:25;94353.56;;;21.87;100.00
13027;BME280;6580;42.680;23.324;2023-08-30T02:16:13;94362.44;;;21.83;100.00
13027;BME280;6580;42.680;23.324;2023-08-30T02:19:01;94355.38;;;21.82;100.00
13027;BME280;6580;42.680;23.324;2023-08-30T02:21:47;94353.41;;;21.77;100.00
13027;BME280;6580;42.680;23.324;2023-08-30T02:24:33;94353.56;;;21.87;100.00
13027;BME280;6580;42.680;23.324;2023-08-30T02:27:18;94345.50;;;21.92;100.00
13027;BME280;6580;42.680;23.324;2023-08-30T02:30:05;94346.25;;;21.71;100.00
13027;BME280;6580;42.680;23.324;2023-08-30T02:32:51;94344.22;;;21.78;100.00
13027;BME280;6580;42.680;23.324;2023-08-30T02:35:38;94342.56;;;21.61;100.00
13027;BME280;6580;42.680;23.324;2023-08-30T02:38:24;94338.44;;;21.75;100.00
13027;BME280;6580;42.680;23.324;2023-08-30T02:41:10;94344.94;;;21.57;100.00
13027;BME280;6580;42.680;23.324;2023-08-30T02:43:56;94350.59;;;21.56;100.00
13027;BME280;6580;42.680;23.324;2023-08-30T02:46:42;94341.22;;;21.47;100.00
13027;BME280;6580;42.680;23.324;2023-08-30T02:49:27;94332.34;;;21.51;100.00
13027;BME280;6580;42.680;23.324;2023-08-30T02:52:14;94331.84;;;21.54;100.00
13027;BME280;6580;42.680;23.324;2023-08-30T02:55:00;94325.97;;;21.57;100.00
13027;BME280;6580;42.680;23.324;2023-08-30T02:57:47;94326.13;;;21.51;100.00
13027;BME280;6580;42.680;23.324;2023-08-30T03:00:33;94329.38;;;21.37;100.00
13027;BME280;6580;42.680;23.324;2023-08-30T03:03:20;94335.13;;;21.40;100.00
13027;BME280;6580;42.680;23.324;2023-08-30T03:06:06;94330.78;;;21.39;100.00
13027;BME280;6580;42.680;23.324;2023-08-30T03:08:54;94331.78;;;21.33;100.00
13027;BME280;6580;42.680;23.324;2023-08-30T03:11:40;94340.06;;;21.27;100.00
13027;BME280;6580;42.680;23.324;2023-08-30T03:14:26;94340.88;;;21.44;100.00
13027;BME280;6580;42.680;23.324;2023-08-30T03:17:11;94341.13;;;21.26;100.00
13027;BME280;6580;42.680;23.324;2023-08-30T03:19:57;94345.63;;;21.37;100.00
13027;BME280;6580;42.680;23.324;2023-08-30T03:22:42;94338.13;;;21.55;100.00
13027;BME280;6580;42.680;23.324;2023-08-30T03:25:29;94340.47;;;21.51;100.00
13027;BME280;6580;42.680;23.324;2023-08-30T03:28:15;94333.34;;;21.46;100.00
13027;BME280;6580;42.680;23.324;2023-08-30T03:31:01;94323.16;;;21.36;100.00
13027;BME280;6580;42.680;23.324;2023-08-30T03:33:47;94326.84;;;21.02;100.00
13027;BME280;6580;42.680;23.324;2023-08-30T03:36:33;94326.72;;;21.09;100.00
13027;BME280;6580;42.680;23.324;2023-08-30T03:39:18;94323.72;;;20.94;100.00
13027;BME280;6580;42.680;23.324;2023-08-30T03:42:05;94326.91;;;21.19;100.00
13027;BME280;6580;42.680;23.324;2023-08-30T03:44:53;94322.31;;;21.36;100.00
13027;BME280;6580;42.680;23.324;2023-08-30T03:47:38;94319.94;;;21.23;100.00
13027;BME280;6580;42.680;23.324;2023-08-30T03:50:24;94324.72;;;21.04;100.00
13027;BME280;6580;42.680;23.324;2023-08-30T03:53:10;94323.38;;;21.18;100.00
13027;BME280;6580;42.680;23.324;2023-08-30T03:55:56;94329.63;;;21.35;100.00
13027;BME280;6580;42.680;23.324;2023-08-30T03:58:44;94342.34;;;21.18;100.00
13027;BME280;6580;42.680;23.324;2023-08-30T04:01:30;94344.22;;;21.18;100.00
13027;BME280;6580;42.680;23.324;2023-08-30T04:04:15;94350.47;;;21.35;100.00
13027;BME280;6580;42.680;23.324;2023-08-30T04:07:01;94355.56;;;21.48;100.00
13027;BME280;6580;42.680;23.324;2023-08-30T04:09:47;94347.88;;;21.40;100.00
13027;BME280;6580;42.680;23.324;2023-08-30T04:12:35;94336.69;;;21.52;100.00
13027;BME280;6580;42.680;23.324;2023-08-30T04:15:22;94337.91;;;21.73;100.00
13027;BME280;6580;42.680;23.324;2023-08-30T04:18:08;94348.88;;;21.66;100.00
13027;BME280;6580;42.680;23.324;2023-08-30T04:20:53;94363.75;;;21.97;100.00
13027;BME280;6580;42.680;23.324;2023-08-30T04:23:39;94375.47;;;22.02;100.00
13027;BME280;6580;42.680;23.324;2023-08-30T04:26:24;94369.34;;;21.90;100.00
13027;BME280;6580;42.680;23.324;2023-08-30T04:29:10;94376.09;;;21.88;100.00
13027;BME280;6580;42.680;23.324;2023-08-30T04:31:58;94387.09;;;22.14;100.00
13027;BME280;6580;42.680;23.324;2023-08-30T04:34:43;94389.31;;;22.01;100.00
13027;BME280;6580;42.680;23.324;2023-08-30T04:37:30;94405.00;;;21.99;100.00
13027;BME280;6580;42.680;23.324;2023-08-30T04:40:16;94414.47;;;21.52;100.00
13027;BME280;6580;42.680;23.324;2023-08-30T04:43:01;94428.06;;;21.41;100.00
13027;BME280;6580;42.680;23.324;2023-08-30T04:45:48;94436.84;;;21.48;100.00
13027;BME280;6580;42.680;23.324;2023-08-30T04:48:35;94425.59;;;21.39;100.00
13027;BME280;6580;42.680;23.324;2023-08-30T04:51:20;94424.16;;;21.48;100.00
13027;BME280;6580;42.680;23.324;2023-08-30T04:54:06;94419.47;;;21.44;100.00
13027;BME280;6580;42.680;23.324;2023-08-30T04:56:52;94413.31;;;21.48;100.00
13027;BME280;6580;42.680;23.324;2023-08-30T04:59:38;94412.88;;;21.67;100.00
13027;BME280;6580;42.680;23.324;2023-08-30T05:02:25;94401.22;;;21.67;100.00
13027;BME280;6580;42.680;23.324;2023-08-30T05:05:13;94417.31;;;21.73;100.00
13027;BME280;6580;42.680;23.324;2023-08-30T05:07:59;94410.44;;;21.82;100.00
13027;BME280;6580;42.680;23.324;2023-08-30T05:10:44;94406.97;;;22.03;91.91
13027;BME280;6580;42.680;23.324;2023-08-30T05:13:32;94412.06;;;22.00;92.04
13027;BME280;6580;42.680;23.324;2023-08-30T05:16:18;94414.84;;;22.21;88.46
13027;BME280;6580;42.680;23.324;2023-08-30T05:19:06;94406.72;;;22.38;86.49
13027;BME280;6580;42.680;23.324;2023-08-30T05:21:53;94410.56;;;23.22;80.30
13027;BME280;6580;42.680;23.324;2023-08-30T05:24:42;94414.41;;;24.00;75.16
13027;BME280;6580;42.680;23.324;2023-08-30T05:27:28;94411.16;;;24.71;69.01
13027;BME280;6580;42.680;23.324;2023-08-30T05:30:14;94417.16;;;24.73;69.04
13027;BME280;6580;42.680;23.324;2023-08-30T05:33:00;94421.00;;;24.09;69.88
13027;BME280;6580;42.680;23.324;2023-08-30T05:35:48;94418.94;;;23.63;73.48
13027;BME280;6580;42.680;23.324;2023-08-30T05:38:35;94430.50;;;22.68;79.03
13027;BME280;6580;42.680;23.324;2023-08-30T05:41:20;94422.44;;;22.36;83.43
13027;BME280;6580;42.680;23.324;2023-08-30T05:44:06;94416.97;;;22.52;83.15
13027;BME280;6580;42.680;23.324;2023-08-30T05:46:53;94415.78;;;23.24;78.52
13027;BME280;6580;42.680;23.324;2023-08-30T05:49:42;94410.56;;;23.96;74.33
13027;BME280;6580;42.680;23.324;2023-08-30T05:52:28;94404.28;;;25.10;68.06
13027;BME280;6580;42.680;23.324;2023-08-30T05:55:16;94395.22;;;25.75;65.38
13027;BME280;6580;42.680;23.324;2023-08-30T05:58:02;94407.81;;;26.21;61.62
13027;BME280;6580;42.680;23.324;2023-08-30T06:00:48;94396.91;;;26.36;61.61
13027;BME280;6580;42.680;23.324;2023-08-30T06:03:34;94412.38;;;27.15;58.59
13027;BME280;6580;42.680;23.324;2023-08-30T06:06:21;94386.84;;;27.35;55.01
13027;BME280;6580;42.680;23.324;2023-08-30T06:09:10;94405.41;;;27.48;56.22
13027;BME280;6580;42.680;23.324;2023-08-30T06:12:00;94401.69;;;27.19;53.54
13027;BME280;6580;42.680;23.324;2023-08-30T06:14:46;94402.53;;;27.19;53.72
13027;BME280;6580;42.680;23.324;2023-08-30T06:17:36;94393.56;;;27.57;53.38
13027;BME280;6580;42.680;23.324;2023-08-30T06:20:23;94388.94;;;28.01;51.67
13027;BME280;6580;42.680;23.324;2023-08-30T06:23:09;94394.03;;;28.51;48.72
13027;BME280;6580;42.680;23.324;2023-08-30T06:25:56;94401.22;;;28.08;48.51
13027;BME280;6580;42.680;23.324;2023-08-30T06:28:42;94398.22;;;28.43;47.62
13027;BME280;6580;42.680;23.324;2023-08-30T06:31:28;94408.28;;;28.53;47.92
13027;BME280;6580;42.680;23.324;2023-08-30T06:34:16;94411.78;;;28.58;47.89
13027;BME280;6580;42.680;23.324;2023-08-30T06:37:01;94410.81;;;28.44;47.66
13027;BME280;6580;42.680;23.324;2023-08-30T06:39:47;94408.22;;;28.29;47.67
13027;BME280;6580;42.680;23.324;2023-08-30T06:42:32;94406.00;;;28.93;47.23
13027;BME280;6580;42.680;23.324;2023-08-30T06:45:20;94407.63;;;30.06;44.52
13027;BME280;6580;42.680;23.324;2023-08-30T06:48:06;94405.59;;;30.48;42.44
13027;BME280;6580;42.680;23.324;2023-08-30T06:50:57;94405.31;;;30.31;42.75
13027;BME280;6580;42.680;23.324;2023-08-30T06:53:42;94393.28;;;30.78;41.66
13027;BME280;6580;42.680;23.324;2023-08-30T06:56:28;94391.72;;;31.17;40.21
13027;BME280;6580;42.680;23.324;2023-08-30T06:59:15;94397.69;;;32.48;37.39
13027;BME280;6580;42.680;23.324;2023-08-30T07:02:04;94396.09;;;32.91;36.69
13027;BME280;6580;42.680;23.324;2023-08-30T07:04:50;94395.13;;;32.30;37.18
13027;BME280;6580;42.680;23.324;2023-08-30T07:07:37;94393.38;;;30.04;40.42
13027;BME280;6580;42.680;23.324;2023-08-30T07:10:22;94396.81;;;30.65;39.80
13027;BME280;6580;42.680;23.324;2023-08-30T07:13:08;94375.94;;;31.36;39.27
13027;BME280;6580;42.680;23.324;2023-08-30T07:15:56;94383.88;;;32.62;36.67
13027;BME280;6580;42.680;23.324;2023-08-30T07:18:44;94389.03;;;33.07;35.69
13027;BME280;6580;42.680;23.324;2023-08-30T07:21:29;94390.81;;;33.64;34.47
13027;BME280;6580;42.680;23.324;2023-08-30T07:24:15;94386.66;;;34.00;33.85
13027;BME280;6580;42.680;23.324;2023-08-30T07:27:01;94395.06;;;33.87;33.52
13027;BME280;6580;42.680;23.324;2023-08-30T07:29:47;94394.06;;;34.72;32.86
13027;BME280;6580;42.680;23.324;2023-08-30T07:32:33;94386.53;;;34.81;32.39
13027;BME280;6580;42.680;23.324;2023-08-30T07:35:21;94391.75;;;35.00;31.87
13027;BME280;6580;42.680;23.324;2023-08-30T07:38:07;94401.84;;;34.53;32.00
13027;BME280;6580;42.680;23.324;2023-08-30T07:40:55;94397.19;;;33.90;33.12
13027;BME280;6580;42.680;23.324;2023-08-30T07:43:40;94394.84;;;34.81;32.04
13027;BME280;6580;42.680;23.324;2023-08-30T07:46:25;94380.97;;;34.98;32.05
13027;BME280;6580;42.680;23.324;2023-08-30T07:49:11;94370.94;;;34.68;31.31
13027;BME280;6580;42.680;23.324;2023-08-30T07:51:59;94372.63;;;35.24;31.16
13027;BME280;6580;42.680;23.324;2023-08-30T07:54:44;94388.56;;;35.81;29.46
13027;BME280;6580;42.680;23.324;2023-08-30T07:57:30;94387.84;;;34.58;30.56
13027;BME280;6580;42.680;23.324;2023-08-30T08:00:16;94387.19;;;34.78;30.82
13027;BME280;6580;42.680;23.324;2023-08-30T08:03:01;94384.91;;;35.89;28.52
13027;BME280;6580;42.680;23.324;2023-08-30T08:05:46;94386.00;;;36.46;27.47
13027;BME280;6580;42.680;23.324;2023-08-30T08:08:34;94388.03;;;36.77;28.64
13027;BME280;6580;42.680;23.324;2023-08-30T08:11:22;94385.28;;;34.70;30.72
13027;BME280;6580;42.680;23.324;2023-08-30T08:14:07;94380.81;;;35.03;30.17
13027;BME280;6580;42.680;23.324;2023-08-30T08:16:53;94378.59;;;34.29;30.10
13027;BME280;6580;42.680;23.324;2023-08-30T08:19:38;94387.53;;;35.56;29.18
13027;BME280;6580;42.680;23.324;2023-08-30T08:22:24;94394.94;;;36.31;29.11
13027;BME280;6580;42.680;23.324;2023-08-30T08:25:11;94391.72;;;37.22;27.56
13027;BME280;6580;42.680;23.324;2023-08-30T08:27:56;94390.09;;;36.68;27.91
13027;BME280;6580;42.680;23.324;2023-08-30T08:30:44;94395.34;;;34.33;29.10
13027;BME280;6580;42.680;23.324;2023-08-30T08:33:34;94402.56;;;33.47;31.18
13027;BME280;6580;42.680;23.324;2023-08-30T08:36:19;94402.66;;;34.79;30.33
13027;BME280;6580;42.680;23.324;2023-08-30T08:39:05;94397.47;;;34.36;30.47
13027;BME280;6580;42.680;23.324;2023-08-30T08:41:55;94399.03;;;32.95;32.73
13027;BME280;6580;42.680;23.324;2023-08-30T08:44:42;94402.97;;;33.02;32.67
13027;BME280;6580;42.680;23.324;2023-08-30T08:47:29;94400.66;;;32.74;33.03
13027;BME280;6580;42.680;23.324;2023-08-30T08:50:17;94392.03;;;33.58;32.96
13027;BME280;6580;42.680;23.324;2023-08-30T08:53:03;94396.63;;;35.11;30.50
13027;BME280;6580;42.680;23.324;2023-08-30T08:55:50;94383.78;;;34.39;31.46
13027;BME280;6580;42.680;23.324;2023-08-30T08:58:39;94384.22;;;35.00;30.81
13027;BME280;6580;42.680;23.324;2023-08-30T09:01:35;94389.00;;;33.68;32.07
13027;BME280;6580;42.680;23.324;2023-08-30T09:04:30;94392.03;;;30.70;37.21
13027;BME280;6580;42.680;23.324;2023-08-30T09:07:17;94389.47;;;32.35;34.89
13027;BME280;6580;42.680;23.324;2023-08-30T09:10:07;94388.91;;;33.51;33.34
13027;BME280;6580;42.680;23.324;2023-08-30T09:12:55;94382.69;;;33.76;33.32
13027;BME280;6580;42.680;23.324;2023-08-30T09:15:42;94382.38;;;31.72;35.75
13027;BME280;6580;42.680;23.324;2023-08-30T09:18:28;94378.50;;;33.95;33.12
13027;BME280;6580;42.680;23.324;2023-08-30T09:21:14;94365.53;;;34.89;31.63
13027;BME280;6580;42.680;23.324;2023-08-30T09:24:02;94359.75;;;35.94;30.52
13027;BME280;6580;42.680;23.324;2023-08-30T09:26:50;94361.41;;;35.95;29.58
13027;BME280;6580;42.680;23.324;2023-08-30T09:29:38;94361.22;;;36.41;29.42
13027;BME280;6580;42.680;23.324;2023-08-30T09:32:30;94371.00;;;35.68;30.19
13027;BME280;6580;42.680;23.324;2023-08-30T09:35:15;94361.44;;;35.86;29.28
13027;BME280;6580;42.680;23.324;2023-08-30T09:38:04;94362.81;;;36.50;28.30
13027;BME280;6580;42.680;23.324;2023-08-30T09:40:49;94364.28;;;36.07;29.38
13027;BME280;6580;42.680;23.324;2023-08-30T09:43:41;94363.59;;;34.22;31.64
13027;BME280;6580;42.680;23.324;2023-08-30T09:46:27;94370.41;;;33.51;33.48
13027;BME280;6580;42.680;23.324;2023-08-30T09:49:20;94365.22;;;32.45;34.64
13027;BME280;6580;42.680;23.324;2023-08-30T09:52:07;94354.66;;;33.13;33.95
13027;BME280;6580;42.680;23.324;2023-08-30T09:54:54;94355.59;;;33.95;33.48
13027;BME280;6580;42.680;23.324;2023-08-30T09:57:41;94349.59;;;34.69;32.29
13027;BME280;6580;42.680;23.324;2023-08-30T10:00:27;94336.09;;;34.50;31.65
13027;BME280;6580;42.680;23.324;2023-08-30T10:03:13;94338.88;;;34.50;32.00
13027;BME280;6580;42.680;23.324;2023-08-30T10:06:01;94339.78;;;36.09;29.76
13027;BME280;6580;42.680;23.324;2023-08-30T10:08:51;94337.63;;;36.35;29.17
13027;BME280;6580;42.680;23.324;2023-08-30T10:11:38;94337.31;;;35.58;29.97
13027;BME280;6580;42.680;23.324;2023-08-30T10:14:24;94336.84;;;35.02;30.34
13027;BME280;6580;42.680;23.324;2023-08-30T10:17:14;94341.66;;;34.34;31.99
13027;BME280;6580;42.680;23.324;2023-08-30T10:20:07;94324.81;;;33.71;32.97
13027;BME280;6580;42.680;23.324;2023-08-30T10:22:55;94331.84;;;34.78;30.96
13027;BME280;6580;42.680;23.324;2023-08-30T10:25:42;94318.91;;;34.99;31.49
13027;BME280;6580;42.680;23.324;2023-08-30T10:28:28;94326.53;;;36.35;29.73
13027;BME280;6580;42.680;23.324;2023-08-30T10:31:14;94333.22;;;35.64;30.05
13027;BME280;6580;42.680;23.324;2023-08-30T10:34:00;94320.66;;;34.49;31.51
13027;BME280;6580;42.680;23.324;2023-08-30T10:36:56;94328.31;;;32.77;33.78
13027;BME280;6580;42.680;23.324;2023-08-30T10:39:48;94324.63;;;32.37;34.90
13027;BME280;6580;42.680;23.324;2023-08-30T10:42:33;94322.25;;;32.66;34.62
13027;BME280;6580;42.680;23.324;2023-08-30T10:45:23;94322.06;;;33.71;32.50
13027;BME280;6580;42.680;23.324;2023-08-30T10:48:12;94327.56;;;32.19;35.50
13027;BME280;6580;42.680;23.324;2023-08-30T10:50:58;94299.69;;;31.36;36.71
13027;BME280;6580;42.680;23.324;2023-08-30T10:53:44;94305.13;;;32.34;35.86
13027;BME280;6580;42.680;23.324;2023-08-30T10:56:54;94315.59;;;34.77;31.29
13027;BME280;6580;42.680;23.324;2023-08-30T11:00:04;94309.22;;;35.31;30.83
13027;BME280;6580;42.680;23.324;2023-08-30T11:02:51;94304.75;;;37.10;29.01
13027;BME280;6580;42.680;23.324;2023-08-30T11:05:40;94301.94;;;37.66;28.01
13027;BME280;6580;42.680;23.324;2023-08-30T11:08:26;94301.78;;;37.27;27.75
13027;BME280;6580;42.680;23.324;2023-08-30T11:11:14;94307.41;;;37.39;27.49
13027;BME280;6580;42.680;23.324;2023-08-30T11:14:06;94306.66;;;35.63;29.65
13027;BME280;6580;42.680;23.324;2023-08-30T11:16:52;94297.03;;;34.69;31.14
13027;BME280;6580;42.680;23.324;2023-08-30T11:19:37;94308.09;;;33.28;31.73
13027;BME280;6580;42.680;23.324;2023-08-30T11:22:25;94310.56;;;32.47;31.23
13027;BME280;6580;42.680;23.324;2023-08-30T11:25:14;94290.31;;;33.60;29.95
13027;BME280;6580;42.680;23.324;2023-08-30T11:28:04;94279.84;;;35.09;28.20
13027;BME280;6580;42.680;23.324;2023-08-30T11:30:55;94278.00;;;35.50;27.77
13027;BME280;6580;42.680;23.324;2023-08-30T11:33:50;94268.19;;;37.79;24.77
13027;BME280;6580;42.680;23.324;2023-08-30T11:36:36;94255.06;;;38.16;23.99
13027;BME280;6580;42.680;23.324;2023-08-30T11:39:22;94265.97;;;37.01;24.64
13027;BME280;6580;42.680;23.324;2023-08-30T11:42:12;94255.72;;;37.62;23.38
13027;BME280;6580;42.680;23.324;2023-08-30T11:45:01;94259.81;;;38.15;22.50
13027;BME280;6580;42.680;23.324;2023-08-30T11:47:50;94256.28;;;37.07;23.19
13027;BME280;6580;42.680;23.324;2023-08-30T11:50:38;94242.66;;;36.82;23.42
13027;BME280;6580;42.680;23.324;2023-08-30T11:53:25;94243.56;;;37.54;22.91
13027;BME280;6580;42.680;23.324;2023-08-30T11:56:11;94238.66;;;37.75;22.02
13027;BME280;6580;42.680;23.324;2023-08-30T11:59:01;94246.13;;;36.67;23.71
13027;BME280;6580;42.680;23.324;2023-08-30T12:01:48;94242.78;;;35.80;24.29
13027;BME280;6580;42.680;23.324;2023-08-30T12:04:41;94249.53;;;35.04;25.49
13027;BME280;6580;42.680;23.324;2023-08-30T12:07:27;94238.19;;;34.35;26.16
13027;BME280;6580;42.680;23.324;2023-08-30T12:10:13;94235.53;;;34.55;25.58
13027;BME280;6580;42.680;23.324;2023-08-30T12:12:58;94237.88;;;34.11;26.16
13027;BME280;6580;42.680;23.324;2023-08-30T12:15:43;94232.63;;;34.97;24.77
13027;BME280;6580;42.680;23.324;2023-08-30T12:18:33;94233.28;;;35.60;24.27
13027;BME280;6580;42.680;23.324;2023-08-30T12:21:23;94225.31;;;34.47;25.65
13027;BME280;6580;42.680;23.324;2023-08-30T12:24:08;94223.94;;;35.16;24.81
13027;BME280;6580;42.680;23.324;2023-08-30T12:26:54;94224.78;;;34.70;24.79
13027;BME280;6580;42.680;23.324;2023-08-30T12:29:43;94217.50;;;34.32;24.90
13027;BME280;6580;42.680;23.324;2023-08-30T12:32:31;94208.44;;;34.23;24.83
13027;BME280;6580;42.680;23.324;2023-08-30T12:35:18;94209.25;;;33.73;25.51
13027;BME280;6580;42.680;23.324;2023-08-30T12:38:05;94215.44;;;33.87;25.41
13027;BME280;6580;42.680;23.324;2023-08-30T12:40:54;94194.91;;;34.38;24.83
13027;BME280;6580;42.680;23.324;2023-08-30T12:43:41;94204.44;;;34.66;23.85
13027;BME280;6580;42.680;23.324;2023-08-30T12:46:27;94189.59;;;35.66;22.33
13027;BME280;6580;42.680;23.324;2023-08-30T12:49:14;94179.22;;;33.71;24.23
13027;BME280;6580;42.680;23.324;2023-08-30T12:52:00;94188.03;;;33.09;25.47
13027;BME280;6580;42.680;23.324;2023-08-30T12:54:50;94186.53;;;32.95;25.03
13027;BME280;6580;42.680;23.324;2023-08-30T12:57:38;94197.16;;;33.18;24.63
13027;BME280;6580;42.680;23.324;2023-08-30T13:00:24;94175.75;;;33.49;23.94
13027;BME280;6580;42.680;23.324;2023-08-30T13:03:09;94171.34;;;33.39;24.50
13027;BME280;6580;42.680;23.324;2023-08-30T13:05:55;94171.56;;;33.77;25.59
13027;BME280;6580;42.680;23.324;2023-08-30T13:08:42;94175.44;;;33.59;25.34
13027;BME280;6580;42.680;23.324;2023-08-30T13:11:29;94197.44;;;32.61;27.23
13027;BME280;6580;42.680;23.324;2023-08-30T13:14:16;94186.56;;;33.03;26.16
13027;BME280;6580;42.680;23.324;2023-08-30T13:17:03;94176.72;;;33.28;23.99
13027;BME280;6580;42.680;23.324;2023-08-30T13:19:49;94181.47;;;33.78;23.48
13027;BME280;6580;42.680;23.324;2023-08-30T13:22:35;94188.13;;;33.94;23.32
13027;BME280;6580;42.680;23.324;2023-08-30T13:25:21;94184.34;;;34.07;23.40
13027;BME280;6580;42.680;23.324;2023-08-30T13:28:08;94182.44;;;33.90;23.38
13027;BME280;6580;42.680;23.324;2023-08-30T13:30:54;94188.13;;;33.60;23.51
13027;BME280;6580;42.680;23.324;2023-08-30T13:33:39;94189.13;;;33.64;23.30
13027;BME280;6580;42.680;23.324;2023-08-30T13:36:25;94196.69;;;33.33;23.01
13027;BME280;6580;42.680;23.324;2023-08-30T13:39:12;94199.97;;;33.43;23.27
13027;BME280;6580;42.680;23.324;2023-08-30T13:41:58;94190.78;;;33.01;23.94
13027;BME280;6580;42.680;23.324;2023-08-30T13:44:45;94202.38;;;33.28;23.62
13027;BME280;6580;42.680;23.324;2023-08-30T13:47:30;94204.34;;;33.36;23.73
13027;BME280;6580;42.680;23.324;2023-08-30T13:50:16;94201.25;;;33.29;23.76
13027;BME280;6580;42.680;23.324;2023-08-30T13:53:01;94209.38;;;32.87;23.61
13027;BME280;6580;42.680;23.324;2023-08-30T13:55:47;94203.59;;;33.05;23.91
13027;BME280;6580;42.680;23.324;2023-08-30T13:58:34;94187.81;;;32.89;23.37
13027;BME280;6580;42.680;23.324;2023-08-30T14:01:22;94211.91;;;32.66;23.98
13027;BME280;6580;42.680;23.324;2023-08-30T14:04:08;94202.69;;;32.71;23.67
13027;BME280;6580;42.680;23.324;2023-08-30T14:06:53;94202.63;;;32.32;24.79
13027;BME280;6580;42.680;23.324;2023-08-30T14:09:39;94191.22;;;32.17;25.05
13027;BME280;6580;42.680;23.324;2023-08-30T14:12:25;94191.16;;;32.38;24.77
13027;BME280;6580;42.680;23.324;2023-08-30T14:15:11;94181.03;;;32.25;24.66
13027;BME280;6580;42.680;23.324;2023-08-30T14:17:57;94199.53;;;32.55;24.65
13027;BME280;6580;42.680;23.324;2023-08-30T14:20:43;94196.91;;;32.20;25.74
13027;BME280;6580;42.680;23.324;2023-08-30T14:23:29;94205.94;;;32.42;25.07
13027;BME280;6580;42.680;23.324;2023-08-30T14:26:17;94201.81;;;32.31;24.76
13027;BME280;6580;42.680;23.324;2023-08-30T14:29:03;94203.53;;;31.97;25.05
13027;BME280;6580;42.680;23.324;2023-08-30T14:31:49;94214.44;;;32.24;25.22
13027;BME280;6580;42.680;23.324;2023-08-30T14:34:36;94204.25;;;32.33;25.20
13027;BME280;6580;42.680;23.324;2023-08-30T14:37:22;94216.31;;;32.45;24.94
13027;BME280;6580;42.680;23.324;2023-08-30T14:40:08;94210.22;;;32.26;25.48
13027;BME280;6580;42.680;23.324;2023-08-30T14:42:55;94209.44;;;31.47;25.76